createdAt,value
2023-01-13T00:00:38.453Z,1.42
2023-01-13T00:03:06.772Z,0.73
2023-01-13T00:05:35.396Z,0.60
2023-01-13T00:08:05.034Z,0.60
2023-01-13T00:10:33.430Z,0.52
2023-01-13T00:13:06.088Z,0.88
2023-01-13T00:15:35.087Z,0.63
2023-01-13T00:18:03.284Z,0.35
2023-01-13T00:20:31.414Z,0.28
2023-01-13T00:23:00.283Z,0.45
2023-01-13T00:25:28.725Z,0.45
2023-01-13T00:27:56.861Z,0.50
2023-01-13T00:30:26.406Z,0.47
2023-01-13T00:32:54.597Z,0.30
2023-01-13T00:35:22.947Z,0.65
2023-01-13T00:37:51.129Z,0.35
2023-01-13T00:40:19.615Z,0.38
2023-01-13T00:43:05.531Z,0.52
2023-01-13T00:45:35.171Z,0.40
2023-01-13T00:48:03.448Z,0.57
2023-01-13T00:50:31.669Z,0.40
2023-01-13T00:53:01.330Z,1.75
2023-01-13T00:55:32.355Z,0.50
2023-01-13T00:58:03.691Z,0.40
2023-01-13T01:00:32.585Z,0.40
2023-01-13T01:03:02.176Z,0.60
2023-01-13T01:05:30.378Z,0.70
2023-01-13T01:07:58.667Z,0.47
2023-01-13T01:10:27.290Z,1.02
2023-01-13T01:12:55.483Z,0.25
2023-01-13T01:15:23.703Z,0.30
2023-01-13T01:17:51.843Z,0.25
2023-01-13T01:20:21.735Z,0.40
2023-01-13T01:22:49.924Z,0.75
2023-01-13T01:25:18.205Z,0.43
2023-01-13T01:27:46.336Z,0.40
2023-01-13T01:30:16.509Z,0.20
2023-01-13T01:32:44.765Z,0.30
2023-01-13T01:35:12.940Z,0.20
2023-01-13T01:37:42.456Z,0.10
2023-01-13T01:40:12.857Z,0.30
2023-01-13T01:42:58.502Z,0.30
2023-01-13T01:45:31.603Z,0.20
2023-01-13T01:48:05.671Z,0.45
2023-01-13T01:50:35.605Z,0.22
2023-01-13T01:53:12.607Z,0.20
2023-01-13T01:55:41.549Z,0.40
2023-01-13T01:58:16.778Z,0.22
2023-01-13T02:00:45.240Z,0.30
2023-01-13T02:03:14.312Z,0.57
2023-01-13T02:05:42.615Z,0.75
2023-01-13T02:08:15.440Z,0.25
2023-01-13T02:10:48.179Z,0.57
2023-01-13T02:13:16.505Z,0.57
2023-01-13T02:15:56.095Z,0.20
2023-01-13T02:18:54.885Z,0.73
2023-01-13T02:22:03.956Z,0.20
2023-01-13T02:25:15.455Z,0.20
2023-01-13T02:28:04.230Z,0.32
2023-01-13T02:31:00.972Z,0.10
2023-01-13T02:33:47.087Z,0.28
2023-01-13T02:36:31.058Z,0.50
2023-01-13T02:39:11.379Z,0.65
2023-01-13T02:42:05.574Z,0.20
2023-01-13T02:44:43.567Z,0.63
2023-01-13T02:47:20.653Z,0.50
2023-01-13T02:52:27.619Z,0.22
2023-01-13T02:55:01.726Z,0.35
2023-01-13T02:57:33.996Z,0.38
2023-01-13T03:00:05.433Z,0.40
2023-01-13T03:02:35.470Z,0.30
2023-01-13T03:05:03.903Z,0.43
2023-01-13T03:07:59.581Z,0.28
2023-01-13T03:10:48.796Z,0.20
2023-01-13T03:13:35.025Z,0.15
2023-01-13T03:16:17.788Z,0.10
2023-01-13T03:19:01.556Z,0.20
2023-01-13T03:21:39.427Z,0.10
2023-01-13T03:24:17.159Z,0.10
2023-01-13T03:26:51.856Z,0.20
2023-01-13T03:29:24.516Z,0.10
2023-01-13T03:32:01.560Z,0.10
2023-01-13T03:37:09.063Z,0.40
2023-01-13T03:39:44.454Z,0.10
2023-01-13T03:42:19.685Z,0.10
2023-01-13T03:44:54.955Z,0.20
2023-01-13T03:47:29.835Z,0.20
2023-01-13T03:50:05.694Z,0.10
2023-01-13T03:52:38.053Z,0.15
2023-01-13T03:55:12.813Z,0.40
2023-01-13T03:57:51.935Z,0.20
2023-01-13T04:00:24.298Z,0.17
2023-01-13T04:02:58.931Z,0.10
2023-01-13T04:05:30.717Z,0.15
2023-01-13T04:08:11.227Z,0.20
2023-01-13T04:10:50.334Z,0.10
2023-01-13T04:13:24.491Z,0.08
2023-01-13T04:15:52.984Z,0.20
2023-01-13T04:18:25.827Z,0.68
2023-01-13T04:20:59.838Z,0.20
2023-01-13T04:23:29.156Z,0.28
2023-01-13T04:25:58.075Z,0.30
2023-01-13T04:28:27.560Z,0.38
2023-01-13T04:30:55.775Z,0.50
2023-01-13T04:33:23.805Z,0.40
2023-01-13T04:35:52.560Z,1.33
2023-01-13T04:38:22.908Z,0.50
2023-01-13T04:40:50.956Z,1.95
2023-01-13T04:43:19.209Z,0.50
2023-01-13T04:45:47.217Z,0.50
2023-01-13T04:48:15.315Z,0.50
2023-01-13T04:50:43.373Z,0.60
2023-01-13T04:53:11.431Z,0.60
2023-01-13T04:55:40.826Z,1.15
2023-01-13T04:58:11.367Z,0.32
2023-01-13T05:00:40.089Z,1.15
2023-01-13T05:04:07.246Z,0.38
2023-01-13T05:06:35.791Z,1.23
2023-01-13T05:09:04.121Z,0.40
2023-01-13T05:11:51.499Z,0.15
2023-01-13T05:14:37.178Z,0.30
2023-01-13T05:17:05.159Z,0.45
2023-01-13T05:19:36.824Z,0.40
2023-01-13T05:22:22.270Z,0.50
2023-01-13T05:25:08.455Z,0.20
2023-01-13T05:27:38.049Z,0.10
2023-01-13T05:30:07.909Z,0.50
2023-01-13T05:32:36.107Z,0.20
2023-01-13T05:35:04.486Z,0.30
2023-01-13T05:37:32.556Z,0.30
2023-01-13T05:40:18.339Z,0.75
2023-01-13T05:43:05.289Z,0.20
2023-01-13T05:45:33.275Z,0.63
2023-01-13T05:48:01.257Z,0.35
2023-01-13T05:50:29.250Z,0.15
2023-01-13T05:52:57.227Z,1.23
2023-01-13T05:55:25.265Z,0.20
2023-01-13T05:57:54.726Z,0.50
2023-01-13T06:00:23.197Z,0.75
2023-01-13T06:02:51.208Z,0.20
2023-01-13T06:05:19.346Z,0.95
2023-01-13T06:07:47.313Z,0.20
2023-01-13T06:10:15.354Z,0.63
2023-01-13T06:12:43.549Z,0.20
2023-01-13T06:15:13.331Z,0.32
2023-01-13T06:17:41.328Z,0.50
2023-01-13T06:20:11.746Z,0.17
2023-01-13T06:22:43.925Z,0.30
2023-01-13T06:25:21.035Z,0.40
2023-01-13T06:30:20.186Z,0.50
2023-01-13T06:32:56.152Z,0.30
2023-01-13T06:35:29.326Z,0.70
2023-01-13T06:38:01.009Z,0.30
2023-01-13T06:40:29.197Z,0.60
2023-01-13T06:43:17.277Z,0.40
2023-01-13T06:45:53.383Z,0.43
2023-01-13T06:48:25.307Z,0.55
2023-01-13T06:50:53.523Z,0.98
2023-01-13T06:53:21.909Z,0.95
2023-01-13T06:55:49.889Z,0.73
2023-01-13T06:58:18.253Z,1.13
2023-01-13T07:00:49.774Z,0.82
2023-01-13T07:03:19.559Z,0.60
2023-01-13T07:05:55.844Z,0.70
2023-01-13T07:08:24.959Z,1.75
2023-01-13T07:10:54.198Z,1.08
2023-01-13T07:13:40.011Z,1.33
2023-01-13T07:16:10.533Z,0.75
2023-01-13T07:18:38.796Z,0.77
2023-01-13T07:21:09.707Z,0.52
2023-01-13T07:23:40.601Z,1.17
2023-01-13T07:26:10.647Z,0.73
2023-01-13T07:28:39.780Z,0.52
2023-01-13T07:31:17.918Z,1.45
2023-01-13T07:33:46.104Z,1.55
2023-01-13T07:36:15.740Z,0.68
2023-01-13T07:38:44.789Z,1.00
2023-01-13T07:41:32.369Z,1.02
2023-01-13T07:44:04.867Z,0.98
2023-01-13T07:46:35.053Z,1.95
2023-01-13T07:49:03.367Z,1.35
2023-01-13T07:51:32.218Z,1.13
2023-01-13T07:54:00.308Z,1.00
2023-01-13T07:56:28.394Z,1.77
2023-01-13T07:58:56.586Z,1.90
2023-01-13T08:01:24.937Z,1.88
2023-01-13T08:03:58.590Z,0.90
2023-01-13T08:06:27.482Z,1.45
2023-01-13T08:08:55.888Z,1.13
2023-01-13T08:11:24.280Z,1.20
2023-01-13T08:13:56.950Z,1.10
2023-01-13T08:16:25.389Z,1.67
2023-01-13T08:18:55.041Z,1.95
2023-01-13T08:21:23.279Z,1.88
2023-01-13T08:23:51.548Z,1.98
2023-01-13T08:26:20.167Z,2.08
2023-01-13T08:28:48.364Z,1.30
2023-01-13T08:31:20.266Z,1.52
2023-01-13T08:33:48.678Z,1.30
2023-01-13T08:36:18.651Z,1.90
2023-01-13T08:38:47.982Z,1.67
2023-01-13T08:41:38.881Z,1.67
2023-01-13T08:44:09.168Z,2.33
2023-01-13T08:46:40.148Z,1.70
2023-01-13T08:49:16.924Z,1.45
2023-01-13T08:51:59.793Z,0.93
2023-01-13T08:54:28.981Z,0.95
2023-01-13T08:56:59.970Z,1.40
2023-01-13T08:59:28.595Z,1.08
2023-01-13T09:01:59.560Z,1.35
2023-01-13T09:04:30.016Z,1.77
2023-01-13T09:06:59.987Z,1.35
2023-01-13T09:09:28.183Z,1.10
2023-01-13T09:12:13.912Z,1.63
2023-01-13T09:14:42.089Z,1.13
2023-01-13T09:17:10.435Z,3.40
2023-01-13T09:19:38.735Z,1.73
2023-01-13T09:22:11.219Z,1.85
2023-01-13T09:24:39.270Z,1.35
2023-01-13T09:27:10.156Z,1.90
2023-01-13T09:29:38.346Z,1.20
2023-01-13T09:32:07.162Z,1.40
2023-01-13T09:34:52.685Z,2.00
2023-01-13T09:37:22.216Z,1.65
2023-01-13T09:39:50.233Z,1.55
2023-01-13T09:42:45.519Z,1.58
2023-01-13T09:45:20.606Z,1.30
2023-01-13T09:47:58.106Z,1.58
2023-01-13T09:50:39.377Z,2.20
2023-01-13T09:53:19.407Z,2.45
2023-01-13T09:55:47.537Z,1.20
2023-01-13T09:58:19.244Z,2.00
2023-01-13T10:01:02.064Z,1.85
2023-01-13T10:03:33.628Z,1.75
2023-01-13T10:06:10.298Z,1.25
2023-01-13T10:08:42.764Z,0.95
2023-01-13T10:11:35.325Z,1.52
2023-01-13T10:14:14.656Z,1.63
2023-01-13T10:16:49.956Z,1.50
2023-01-13T10:19:23.604Z,2.13
2023-01-13T10:22:32.053Z,1.35
2023-01-13T10:25:20.451Z,1.52
2023-01-13T10:27:51.468Z,1.35
2023-01-13T10:30:24.300Z,2.47
2023-01-13T10:32:58.378Z,3.25
2023-01-13T10:35:53.736Z,2.38
2023-01-13T10:38:25.248Z,1.27
2023-01-13T10:40:57.988Z,1.25
2023-01-13T10:43:28.348Z,0.98
2023-01-13T10:46:05.110Z,1.55
2023-01-13T10:48:37.991Z,2.97
2023-01-13T10:51:21.710Z,2.20
2023-01-13T10:53:57.604Z,1.40
2023-01-13T10:56:31.556Z,1.70
2023-01-13T10:59:17.149Z,2.67
2023-01-13T11:02:02.374Z,1.63
2023-01-13T11:04:37.651Z,1.27
2023-01-13T11:07:20.271Z,3.15
2023-01-13T11:09:48.510Z,1.88
2023-01-13T11:12:35.625Z,1.58
2023-01-13T11:15:10.615Z,1.45
2023-01-13T11:17:47.957Z,1.13
2023-01-13T11:20:29.860Z,1.60
2023-01-13T11:23:06.036Z,1.40
2023-01-13T11:25:43.003Z,1.63
2023-01-13T11:28:36.910Z,2.38
2023-01-13T11:31:15.939Z,2.40
2023-01-13T11:33:52.582Z,2.42
2023-01-13T11:36:26.600Z,1.98
2023-01-13T11:38:59.751Z,1.58
2023-01-13T11:41:45.140Z,1.15
2023-01-13T11:44:23.542Z,1.65
2023-01-13T11:46:54.905Z,2.78
2023-01-13T11:49:30.435Z,1.40
2023-01-13T11:52:08.135Z,1.55
2023-01-13T11:55:03.666Z,1.45
2023-01-13T11:58:49.732Z,1.55
2023-01-13T12:01:56.311Z,1.27
2023-01-13T12:04:30.817Z,2.03
2023-01-13T12:07:14.678Z,1.33
2023-01-13T12:10:03.201Z,2.42
2023-01-13T12:12:49.560Z,1.42
2023-01-13T12:16:00.231Z,1.40
2023-01-13T12:18:49.362Z,1.92
2023-01-13T12:21:22.365Z,2.42
2023-01-13T12:24:06.156Z,2.30
2023-01-13T12:26:42.457Z,1.45
2023-01-13T12:29:18.931Z,1.07
2023-01-13T12:31:50.345Z,1.85
2023-01-13T12:34:54.332Z,0.82
2023-01-13T12:37:33.522Z,2.17
2023-01-13T12:40:27.054Z,1.85
2023-01-13T12:43:25.545Z,1.48
2023-01-13T12:45:53.608Z,1.17
2023-01-13T12:48:49.147Z,1.38
2023-01-13T12:51:27.955Z,0.73
2023-01-13T12:53:57.258Z,2.15
2023-01-13T12:56:44.441Z,0.70
2023-01-13T12:59:36.121Z,2.53
2023-01-13T13:02:34.986Z,1.88
2023-01-13T13:05:44.965Z,1.00
2023-01-13T13:08:26.074Z,2.95
2023-01-13T13:11:48.904Z,1.10
2023-01-13T13:15:04.570Z,1.77
2023-01-13T13:18:01.010Z,1.83
2023-01-13T13:21:04.530Z,0.95
2023-01-13T13:24:11.549Z,1.50
2023-01-13T13:26:46.900Z,1.67
2023-01-13T13:29:36.847Z,2.17
2023-01-13T13:32:41.761Z,3.03
2023-01-13T13:35:32.364Z,1.40
2023-01-13T13:38:36.562Z,0.60
2023-01-13T13:41:35.288Z,1.27
2023-01-13T13:44:31.137Z,1.35
2023-01-13T13:47:03.525Z,1.38
2023-01-13T13:49:42.026Z,1.85
2023-01-13T13:52:20.906Z,0.85
2023-01-13T13:54:53.416Z,1.70
2023-01-13T13:57:39.640Z,1.30
2023-01-13T14:00:22.081Z,1.48
2023-01-13T14:02:54.504Z,1.02
2023-01-13T14:05:28.121Z,1.60
2023-01-13T14:08:01.619Z,1.42
2023-01-13T14:10:36.414Z,1.80
2023-01-13T14:13:16.576Z,1.23
2023-01-13T14:15:46.454Z,1.75
2023-01-13T14:18:18.738Z,3.40
2023-01-13T14:20:55.621Z,0.80
2023-01-13T14:23:29.096Z,1.08
2023-01-13T14:26:03.169Z,2.22
2023-01-13T14:28:38.378Z,0.57
2023-01-13T14:31:10.300Z,1.65
2023-01-13T14:33:42.995Z,1.25
2023-01-13T14:36:21.950Z,1.38
2023-01-13T14:39:26.868Z,0.75
2023-01-13T14:41:55.240Z,1.25
2023-01-13T14:44:30.775Z,2.13
2023-01-13T14:47:02.359Z,0.82
2023-01-13T14:49:36.910Z,1.52
2023-01-13T14:52:13.401Z,1.23
2023-01-13T14:54:50.226Z,1.20
2023-01-13T14:57:28.991Z,1.80
2023-01-13T15:00:06.446Z,1.40
2023-01-13T15:03:05.677Z,1.35
2023-01-13T15:05:37.053Z,1.33
2023-01-13T15:08:29.590Z,1.70
2023-01-13T15:11:03.329Z,1.00
2023-01-13T15:13:42.607Z,1.88
2023-01-13T15:16:23.287Z,2.03
2023-01-13T15:18:51.756Z,1.30
2023-01-13T15:21:20.311Z,2.03
2023-01-13T15:23:48.534Z,0.70
2023-01-13T15:26:28.782Z,1.48
2023-01-13T15:28:59.299Z,1.52
2023-01-13T15:31:29.863Z,1.05
2023-01-13T15:33:58.787Z,1.17
2023-01-13T15:36:30.027Z,1.33
2023-01-13T15:39:00.575Z,1.20
2023-01-13T15:41:46.836Z,1.23
2023-01-13T15:44:35.097Z,2.83
2023-01-13T15:47:10.546Z,1.30
2023-01-13T15:49:42.182Z,1.88
2023-01-13T15:52:21.426Z,1.73
2023-01-13T15:54:49.769Z,2.70
2023-01-13T15:57:24.496Z,1.45
2023-01-13T15:59:56.140Z,2.05
2023-01-13T16:02:26.088Z,1.92
2023-01-13T16:04:54.835Z,2.72
2023-01-13T16:07:26.160Z,1.92
2023-01-13T16:09:54.330Z,2.35
2023-01-13T16:12:22.495Z,2.03
2023-01-13T16:14:50.563Z,2.08
2023-01-13T16:17:23.889Z,2.58
2023-01-13T16:19:53.524Z,1.55
2023-01-13T16:22:21.516Z,1.45
2023-01-13T16:24:49.515Z,2.35
2023-01-13T16:27:20.052Z,2.00
2023-01-13T16:29:49.852Z,2.17
2023-01-13T16:32:19.717Z,2.13
2023-01-13T16:34:47.975Z,1.35
2023-01-13T16:37:23.185Z,1.30
2023-01-13T16:39:52.125Z,2.92
2023-01-13T16:42:20.872Z,1.67
2023-01-13T16:44:49.691Z,1.20
2023-01-13T16:47:19.379Z,1.25
2023-01-13T16:49:48.364Z,1.55
2023-01-13T16:52:16.448Z,1.67
2023-01-13T16:54:45.819Z,1.27
2023-01-13T16:57:15.149Z,1.23
2023-01-13T16:59:43.266Z,1.30
2023-01-13T17:02:15.148Z,0.63
2023-01-13T17:04:43.521Z,1.00
2023-01-13T17:07:17.959Z,0.90
2023-01-13T17:09:47.445Z,1.65
2023-01-13T17:12:15.537Z,1.33
2023-01-13T17:14:44.293Z,1.17
2023-01-13T17:17:23.746Z,1.25
2023-01-13T17:19:53.111Z,2.30
2023-01-13T17:22:22.118Z,1.73
2023-01-13T17:24:51.601Z,1.70
2023-01-13T17:27:21.153Z,1.70
2023-01-13T17:29:49.185Z,2.70
2023-01-13T17:32:19.073Z,1.58
2023-01-13T17:34:47.858Z,1.95
2023-01-13T17:37:16.347Z,2.67
2023-01-13T17:39:48.179Z,1.30
2023-01-13T17:42:18.116Z,1.95
2023-01-13T17:44:46.874Z,1.77
2023-01-13T17:47:15.125Z,1.52
2023-01-13T17:49:43.170Z,1.90
2023-01-13T17:52:11.323Z,1.92
2023-01-13T17:54:42.931Z,2.20
2023-01-13T17:57:11.136Z,2.25
2023-01-13T17:59:41.449Z,2.17
2023-01-13T18:02:13.487Z,2.08
2023-01-13T18:04:41.954Z,1.60
2023-01-13T18:07:09.994Z,1.50
2023-01-13T18:09:38.133Z,1.17
2023-01-13T18:12:06.664Z,2.33
2023-01-13T18:14:35.576Z,2.47
2023-01-13T18:17:05.031Z,2.03
2023-01-13T18:19:50.763Z,2.35
2023-01-13T18:22:36.151Z,1.67
2023-01-13T18:25:22.113Z,3.53
2023-01-13T18:27:50.191Z,1.95
2023-01-13T18:30:18.378Z,1.85
2023-01-13T18:32:47.760Z,1.23
2023-01-13T18:35:15.784Z,2.25
2023-01-13T18:37:44.312Z,1.75
2023-01-13T18:40:14.557Z,2.65
2023-01-13T18:42:59.116Z,1.73
2023-01-13T18:45:30.306Z,1.88
2023-01-13T18:48:02.264Z,1.58
2023-01-13T18:50:31.760Z,2.30
2023-01-13T18:52:59.870Z,1.55
2023-01-13T18:55:28.976Z,2.63
2023-01-13T18:57:57.468Z,2.03
2023-01-13T19:00:27.113Z,2.20
2023-01-13T19:05:38.188Z,1.88
2023-01-13T19:08:07.052Z,1.98
2023-01-13T19:10:36.269Z,2.45
2023-01-13T19:13:04.383Z,2.45
2023-01-13T19:15:32.426Z,2.65
2023-01-13T19:18:00.711Z,2.33
2023-01-13T19:20:28.760Z,2.15
2023-01-13T19:22:58.157Z,1.58
2023-01-13T19:25:26.265Z,2.13
2023-01-13T19:27:54.341Z,3.35
2023-01-13T19:30:22.499Z,1.70
2023-01-13T19:32:50.657Z,2.47
2023-01-13T19:35:20.035Z,2.17
2023-01-13T19:37:48.148Z,3.05
2023-01-13T19:40:18.133Z,1.60
2023-01-13T19:43:04.415Z,2.40
2023-01-13T19:45:35.258Z,2.58
2023-01-13T19:48:05.437Z,1.83
2023-01-13T19:50:38.776Z,1.63
2023-01-13T19:53:07.897Z,1.63
2023-01-13T19:55:37.371Z,1.85
2023-01-13T19:58:08.075Z,2.75
2023-01-13T20:00:36.225Z,1.30
2023-01-13T20:03:08.019Z,1.52
2023-01-13T20:05:36.252Z,1.50
2023-01-13T20:08:04.384Z,1.63
2023-01-13T20:10:32.397Z,1.52
2023-01-13T20:13:01.843Z,1.23
2023-01-13T20:15:30.445Z,2.10
2023-01-13T20:18:00.508Z,3.72
2023-01-13T20:20:28.695Z,3.00
2023-01-13T20:22:58.166Z,2.05
2023-01-13T20:25:28.494Z,1.88
2023-01-13T20:27:58.543Z,3.30
2023-01-13T20:30:28.018Z,1.33
2023-01-13T20:32:56.245Z,2.53
2023-01-13T20:35:29.446Z,2.53
2023-01-13T20:37:57.767Z,2.58
2023-01-13T20:40:25.913Z,3.00
2023-01-13T20:42:53.039Z,3.88
2023-01-13T20:45:22.607Z,2.50
2023-01-13T20:47:52.362Z,2.10
2023-01-13T20:50:20.615Z,2.10
2023-01-13T20:52:49.353Z,2.13
2023-01-13T20:55:17.621Z,3.22
2023-01-13T20:57:48.734Z,1.35
2023-01-13T21:00:18.457Z,2.00
2023-01-13T21:02:46.555Z,1.25
2023-01-13T21:05:16.305Z,1.33
2023-01-13T21:07:44.494Z,1.23
2023-01-13T21:10:12.684Z,1.58
2023-01-13T21:12:58.557Z,1.42
2023-01-13T21:15:27.434Z,2.70
2023-01-13T21:18:13.301Z,2.13
2023-01-13T21:20:42.768Z,2.65
2023-01-13T21:23:11.825Z,2.20
2023-01-13T21:25:40.491Z,2.97
2023-01-13T21:28:11.508Z,2.42
2023-01-13T21:30:40.702Z,1.83
2023-01-13T21:33:09.230Z,1.95
2023-01-13T21:35:39.844Z,1.70
2023-01-13T21:38:11.981Z,3.08
2023-01-13T21:40:40.073Z,2.90
2023-01-13T21:43:30.229Z,1.73
2023-01-13T21:46:15.800Z,1.98
2023-01-13T21:48:43.858Z,2.50
2023-01-13T21:51:12.044Z,2.80
2023-01-13T21:53:41.514Z,2.33
2023-01-13T21:56:09.650Z,2.40
2023-01-13T21:58:39.817Z,1.58
2023-01-13T22:01:09.777Z,2.20
2023-01-13T22:03:58.952Z,2.08
2023-01-13T22:06:27.895Z,2.47
2023-01-13T22:08:59.956Z,1.90
2023-01-13T22:11:28.935Z,1.55
2023-01-13T22:14:10.133Z,1.73
2023-01-13T22:16:42.193Z,2.50
2023-01-13T22:19:11.611Z,3.15
2023-01-13T22:21:39.984Z,2.03
2023-01-13T22:24:10.667Z,1.50
2023-01-13T22:26:38.812Z,2.10
2023-01-13T22:29:06.947Z,2.45
2023-01-13T22:31:35.184Z,1.55
2023-01-13T22:34:03.328Z,1.58
2023-01-13T22:36:31.458Z,2.35
2023-01-13T22:39:00.592Z,2.70
2023-01-13T22:41:30.249Z,1.90
2023-01-13T22:43:58.384Z,2.55
2023-01-13T22:46:26.608Z,2.83
2023-01-13T22:48:55.929Z,2.80
2023-01-13T22:51:25.115Z,1.83
2023-01-13T22:53:53.350Z,2.03
2023-01-13T22:56:25.137Z,1.70
2023-01-13T22:58:57.343Z,3.45
2023-01-13T23:01:27.587Z,2.05
2023-01-13T23:03:56.553Z,1.92
2023-01-13T23:06:27.518Z,2.08
2023-01-13T23:08:56.339Z,2.20
2023-01-13T23:11:27.716Z,2.72
2023-01-13T23:14:01.831Z,2.78
2023-01-13T23:16:33.414Z,2.38
2023-01-13T23:19:01.619Z,2.70
2023-01-13T23:21:32.699Z,1.63
2023-01-13T23:24:01.380Z,1.88
2023-01-13T23:26:31.600Z,2.15
2023-01-13T23:29:03.877Z,2.22
2023-01-13T23:31:32.172Z,3.85
2023-01-13T23:34:01.285Z,2.92
2023-01-13T23:36:30.435Z,2.28
2023-01-13T23:39:00.325Z,1.98
2023-01-13T23:41:29.591Z,2.03
2023-01-13T23:44:00.657Z,2.53
2023-01-13T23:46:32.972Z,1.42
2023-01-13T23:49:03.501Z,2.08
2023-01-13T23:51:31.953Z,1.83
2023-01-13T23:54:00.867Z,1.98
2023-01-13T23:56:32.359Z,1.50
2023-01-13T23:59:00.592Z,1.88
